sensor_id;sensor_type;location;lat;lon;timestamp;P1;durP1;ratioP1;P2;durP2;ratioP2
19664;SDS011;9980;51.020;7.772;2022-09-09T00:03:54;1.50;;;1.20;;
19664;SDS011;9980;51.020;7.772;2022-09-09T00:06:32;6.03;;;3.23;;
19664;SDS011;9980;51.020;7.772;2022-09-09T00:09:12;2.97;;;1.97;;
19664;SDS011;9980;51.020;7.772;2022-09-09T00:17:33;3.07;;;2.07;;
19664;SDS011;9980;51.020;7.772;2022-09-09T00:20:17;3.03;;;1.30;;
19664;SDS011;9980;51.020;7.772;2022-09-09T00:23:33;4.97;;;1.93;;
19664;SDS011;9980;51.020;7.772;2022-09-09T00:29:03;4.20;;;1.80;;
19664;SDS011;9980;51.020;7.772;2022-09-09T00:31:36;2.50;;;1.50;;
19664;SDS011;9980;51.020;7.772;2022-09-09T00:34:11;2.77;;;1.57;;
19664;SDS011;9980;51.020;7.772;2022-09-09T00:36:43;4.23;;;1.77;;
19664;SDS011;9980;51.020;7.772;2022-09-09T00:39:17;3.27;;;1.90;;
19664;SDS011;9980;51.020;7.772;2022-09-09T00:45:03;3.47;;;1.73;;
19664;SDS011;9980;51.020;7.772;2022-09-09T00:56:28;2.83;;;1.33;;
19664;SDS011;9980;51.020;7.772;2022-09-09T00:59:40;2.67;;;1.20;;
19664;SDS011;9980;51.020;7.772;2022-09-09T01:08:00;3.43;;;1.70;;
19664;SDS011;9980;51.020;7.772;2022-09-09T01:13:27;4.00;;;1.63;;
19664;SDS011;9980;51.020;7.772;2022-09-09T01:16:04;8.13;;;2.00;;
19664;SDS011;9980;51.020;7.772;2022-09-09T01:18:39;1.87;;;1.50;;
19664;SDS011;9980;51.020;7.772;2022-09-09T01:21:18;2.73;;;2.00;;
19664;SDS011;9980;51.020;7.772;2022-09-09T01:27:03;10.53;;;2.30;;
19664;SDS011;9980;51.020;7.772;2022-09-09T01:29:33;3.17;;;1.50;;
19664;SDS011;9980;51.020;7.772;2022-09-09T01:32:01;2.33;;;1.70;;
19664;SDS011;9980;51.020;7.772;2022-09-09T01:38:23;3.17;;;1.50;;
19664;SDS011;9980;51.020;7.772;2022-09-09T01:40:52;4.40;;;1.50;;
19664;SDS011;9980;51.020;7.772;2022-09-09T01:43:24;2.73;;;1.50;;
19664;SDS011;9980;51.020;7.772;2022-09-09T01:45:54;3.97;;;1.30;;
19664;SDS011;9980;51.020;7.772;2022-09-09T01:48:26;4.47;;;2.00;;
19664;SDS011;9980;51.020;7.772;2022-09-09T01:51:04;4.63;;;1.70;;
19664;SDS011;9980;51.020;7.772;2022-09-09T01:53:31;4.47;;;1.80;;
19664;SDS011;9980;51.020;7.772;2022-09-09T01:56:02;3.13;;;1.50;;
19664;SDS011;9980;51.020;7.772;2022-09-09T02:01:52;3.33;;;1.60;;
19664;SDS011;9980;51.020;7.772;2022-09-09T02:10:21;5.17;;;1.70;;
19664;SDS011;9980;51.020;7.772;2022-09-09T02:13:12;5.00;;;1.73;;
19664;SDS011;9980;51.020;7.772;2022-09-09T02:15:47;3.57;;;1.80;;
19664;SDS011;9980;51.020;7.772;2022-09-09T02:18:25;2.43;;;1.60;;
19664;SDS011;9980;51.020;7.772;2022-09-09T02:21:01;5.00;;;1.60;;
19664;SDS011;9980;51.020;7.772;2022-09-09T02:23:29;5.37;;;1.90;;
19664;SDS011;9980;51.020;7.772;2022-09-09T02:26:00;3.10;;;1.50;;
19664;SDS011;9980;51.020;7.772;2022-09-09T02:28:30;4.80;;;1.97;;
19664;SDS011;9980;51.020;7.772;2022-09-09T02:31:01;6.10;;;1.70;;
19664;SDS011;9980;51.020;7.772;2022-09-09T02:33:37;1.77;;;1.40;;
19664;SDS011;9980;51.020;7.772;2022-09-09T02:36:10;4.50;;;1.90;;
19664;SDS011;9980;51.020;7.772;2022-09-09T02:38:45;2.57;;;1.77;;
19664;SDS011;9980;51.020;7.772;2022-09-09T02:41:19;2.47;;;1.67;;
19664;SDS011;9980;51.020;7.772;2022-09-09T02:43:54;3.60;;;1.57;;
19664;SDS011;9980;51.020;7.772;2022-09-09T02:49:48;2.83;;;2.00;;
19664;SDS011;9980;51.020;7.772;2022-09-09T02:52:28;4.30;;;1.50;;
19664;SDS011;9980;51.020;7.772;2022-09-09T02:58:06;5.60;;;1.90;;
19664;SDS011;9980;51.020;7.772;2022-09-09T03:00:39;3.13;;;1.83;;
19664;SDS011;9980;51.020;7.772;2022-09-09T03:03:07;9.27;;;2.10;;
19664;SDS011;9980;51.020;7.772;2022-09-09T03:05:38;2.90;;;1.83;;
19664;SDS011;9980;51.020;7.772;2022-09-09T03:08:10;1.87;;;1.67;;
19664;SDS011;9980;51.020;7.772;2022-09-09T03:10:40;2.83;;;1.83;;
19664;SDS011;9980;51.020;7.772;2022-09-09T03:13:08;2.97;;;1.70;;
19664;SDS011;9980;51.020;7.772;2022-09-09T03:15:38;5.20;;;1.93;;
19664;SDS011;9980;51.020;7.772;2022-09-09T03:18:10;5.80;;;1.60;;
19664;SDS011;9980;51.020;7.772;2022-09-09T03:20:38;3.50;;;2.10;;
19664;SDS011;9980;51.020;7.772;2022-09-09T03:23:07;2.87;;;1.60;;
19664;SDS011;9980;51.020;7.772;2022-09-09T03:25:46;4.23;;;1.67;;
19664;SDS011;9980;51.020;7.772;2022-09-09T03:28:18;3.10;;;2.10;;
19664;SDS011;9980;51.020;7.772;2022-09-09T03:30:45;4.50;;;2.13;;
19664;SDS011;9980;51.020;7.772;2022-09-09T03:33:12;2.43;;;1.70;;
19664;SDS011;9980;51.020;7.772;2022-09-09T03:35:45;6.53;;;1.93;;
19664;SDS011;9980;51.020;7.772;2022-09-09T03:38:16;3.07;;;1.70;;
19664;SDS011;9980;51.020;7.772;2022-09-09T03:40:53;4.13;;;1.80;;
19664;SDS011;9980;51.020;7.772;2022-09-09T03:43:24;3.17;;;2.10;;
19664;SDS011;9980;51.020;7.772;2022-09-09T03:45:53;4.47;;;1.97;;
19664;SDS011;9980;51.020;7.772;2022-09-09T03:48:24;3.37;;;2.30;;
19664;SDS011;9980;51.020;7.772;2022-09-09T03:50:54;1.90;;;1.70;;
19664;SDS011;9980;51.020;7.772;2022-09-09T03:53:24;3.27;;;2.37;;
19664;SDS011;9980;51.020;7.772;2022-09-09T03:55:52;3.27;;;2.73;;
19664;SDS011;9980;51.020;7.772;2022-09-09T03:58:24;3.23;;;2.07;;
19664;SDS011;9980;51.020;7.772;2022-09-09T04:00:57;3.80;;;2.20;;
19664;SDS011;9980;51.020;7.772;2022-09-09T04:03:31;3.33;;;1.80;;
19664;SDS011;9980;51.020;7.772;2022-09-09T04:05:58;5.50;;;2.13;;
19664;SDS011;9980;51.020;7.772;2022-09-09T04:08:30;3.03;;;2.10;;
19664;SDS011;9980;51.020;7.772;2022-09-09T04:10:58;2.57;;;2.13;;
19664;SDS011;9980;51.020;7.772;2022-09-09T04:13:28;2.30;;;1.90;;
19664;SDS011;9980;51.020;7.772;2022-09-09T04:15:57;3.07;;;2.30;;
19664;SDS011;9980;51.020;7.772;2022-09-09T04:18:26;4.33;;;2.20;;
19664;SDS011;9980;51.020;7.772;2022-09-09T04:20:55;4.67;;;2.47;;
19664;SDS011;9980;51.020;7.772;2022-09-09T04:23:26;5.57;;;2.40;;
19664;SDS011;9980;51.020;7.772;2022-09-09T04:25:58;2.87;;;2.03;;
19664;SDS011;9980;51.020;7.772;2022-09-09T04:28:28;6.10;;;2.43;;
19664;SDS011;9980;51.020;7.772;2022-09-09T04:31:04;5.20;;;2.43;;
19664;SDS011;9980;51.020;7.772;2022-09-09T04:33:34;2.90;;;2.10;;
19664;SDS011;9980;51.020;7.772;2022-09-09T04:36:06;6.37;;;2.37;;
19664;SDS011;9980;51.020;7.772;2022-09-09T04:38:34;3.37;;;2.00;;
19664;SDS011;9980;51.020;7.772;2022-09-09T04:41:02;4.53;;;1.80;;
19664;SDS011;9980;51.020;7.772;2022-09-09T04:43:31;4.60;;;2.00;;
19664;SDS011;9980;51.020;7.772;2022-09-09T04:46:00;8.53;;;2.23;;
19664;SDS011;9980;51.020;7.772;2022-09-09T04:48:27;2.60;;;2.20;;
19664;SDS011;9980;51.020;7.772;2022-09-09T04:50:55;7.37;;;2.23;;
19664;SDS011;9980;51.020;7.772;2022-09-09T04:53:24;2.87;;;2.00;;
19664;SDS011;9980;51.020;7.772;2022-09-09T04:56:02;4.20;;;2.13;;
19664;SDS011;9980;51.020;7.772;2022-09-09T04:58:37;4.13;;;2.13;;
19664;SDS011;9980;51.020;7.772;2022-09-09T05:01:10;3.73;;;2.00;;
19664;SDS011;9980;51.020;7.772;2022-09-09T05:03:43;5.90;;;2.70;;
19664;SDS011;9980;51.020;7.772;2022-09-09T05:06:17;3.00;;;1.83;;
19664;SDS011;9980;51.020;7.772;2022-09-09T05:08:49;2.40;;;1.90;;
19664;SDS011;9980;51.020;7.772;2022-09-09T05:11:22;2.93;;;2.27;;
19664;SDS011;9980;51.020;7.772;2022-09-09T05:13:58;7.73;;;2.33;;
19664;SDS011;9980;51.020;7.772;2022-09-09T05:16:25;4.63;;;2.43;;
19664;SDS011;9980;51.020;7.772;2022-09-09T05:18:53;3.80;;;2.20;;
19664;SDS011;9980;51.020;7.772;2022-09-09T05:21:21;3.70;;;2.33;;
19664;SDS011;9980;51.020;7.772;2022-09-09T05:23:52;5.10;;;2.10;;
19664;SDS011;9980;51.020;7.772;2022-09-09T05:26:20;7.70;;;2.27;;
19664;SDS011;9980;51.020;7.772;2022-09-09T05:28:51;3.33;;;1.87;;
19664;SDS011;9980;51.020;7.772;2022-09-09T05:31:19;2.80;;;1.63;;
19664;SDS011;9980;51.020;7.772;2022-09-09T05:33:49;4.67;;;2.00;;
19664;SDS011;9980;51.020;7.772;2022-09-09T05:36:17;3.00;;;2.00;;
19664;SDS011;9980;51.020;7.772;2022-09-09T05:38:53;2.93;;;1.97;;
19664;SDS011;9980;51.020;7.772;2022-09-09T05:41:20;2.80;;;2.00;;
19664;SDS011;9980;51.020;7.772;2022-09-09T05:43:51;3.13;;;2.00;;
19664;SDS011;9980;51.020;7.772;2022-09-09T05:46:20;2.43;;;1.33;;
19664;SDS011;9980;51.020;7.772;2022-09-09T05:48:51;2.83;;;1.70;;
19664;SDS011;9980;51.020;7.772;2022-09-09T05:51:26;6.23;;;2.20;;
19664;SDS011;9980;51.020;7.772;2022-09-09T05:53:58;8.13;;;2.93;;
19664;SDS011;9980;51.020;7.772;2022-09-09T05:56:28;7.73;;;2.33;;
19664;SDS011;9980;51.020;7.772;2022-09-09T05:58:57;5.30;;;2.80;;
19664;SDS011;9980;51.020;7.772;2022-09-09T06:01:30;3.27;;;2.20;;
19664;SDS011;9980;51.020;7.772;2022-09-09T06:04:01;3.17;;;1.93;;
19664;SDS011;9980;51.020;7.772;2022-09-09T06:06:31;3.37;;;2.50;;
19664;SDS011;9980;51.020;7.772;2022-09-09T06:09:05;3.13;;;2.10;;
19664;SDS011;9980;51.020;7.772;2022-09-09T06:11:38;5.83;;;2.60;;
19664;SDS011;9980;51.020;7.772;2022-09-09T06:14:06;5.67;;;2.53;;
19664;SDS011;9980;51.020;7.772;2022-09-09T06:16:36;4.90;;;2.30;;
19664;SDS011;9980;51.020;7.772;2022-09-09T06:19:15;4.17;;;2.17;;
19664;SDS011;9980;51.020;7.772;2022-09-09T06:21:42;4.10;;;2.30;;
19664;SDS011;9980;51.020;7.772;2022-09-09T06:24:11;2.47;;;1.90;;
19664;SDS011;9980;51.020;7.772;2022-09-09T06:26:40;3.17;;;2.00;;
19664;SDS011;9980;51.020;7.772;2022-09-09T06:29:09;3.80;;;2.20;;
19664;SDS011;9980;51.020;7.772;2022-09-09T06:31:37;5.93;;;2.10;;
19664;SDS011;9980;51.020;7.772;2022-09-09T06:34:13;4.97;;;2.00;;
19664;SDS011;9980;51.020;7.772;2022-09-09T06:36:45;7.47;;;2.20;;
19664;SDS011;9980;51.020;7.772;2022-09-09T06:39:12;7.47;;;2.70;;
19664;SDS011;9980;51.020;7.772;2022-09-09T06:41:42;3.27;;;1.97;;
19664;SDS011;9980;51.020;7.772;2022-09-09T06:44:38;6.90;;;2.00;;
19664;SDS011;9980;51.020;7.772;2022-09-09T06:47:11;4.33;;;2.10;;
19664;SDS011;9980;51.020;7.772;2022-09-09T06:49:40;3.00;;;2.00;;
19664;SDS011;9980;51.020;7.772;2022-09-09T06:52:11;5.43;;;2.30;;
19664;SDS011;9980;51.020;7.772;2022-09-09T06:54:39;2.43;;;1.83;;
19664;SDS011;9980;51.020;7.772;2022-09-09T06:57:09;4.67;;;2.17;;
19664;SDS011;9980;51.020;7.772;2022-09-09T06:59:56;4.57;;;2.27;;
19664;SDS011;9980;51.020;7.772;2022-09-09T07:02:23;3.17;;;1.70;;
19664;SDS011;9980;51.020;7.772;2022-09-09T07:04:51;4.23;;;1.63;;
19664;SDS011;9980;51.020;7.772;2022-09-09T07:07:18;4.97;;;1.80;;
19664;SDS011;9980;51.020;7.772;2022-09-09T07:09:46;1.77;;;1.60;;
19664;SDS011;9980;51.020;7.772;2022-09-09T07:12:14;5.70;;;2.10;;
19664;SDS011;9980;51.020;7.772;2022-09-09T07:14:52;3.43;;;1.53;;
19664;SDS011;9980;51.020;7.772;2022-09-09T07:17:19;3.13;;;2.00;;
19664;SDS011;9980;51.020;7.772;2022-09-09T07:19:46;3.43;;;1.80;;
19664;SDS011;9980;51.020;7.772;2022-09-09T07:22:15;3.33;;;1.90;;
19664;SDS011;9980;51.020;7.772;2022-09-09T07:24:43;3.07;;;1.87;;
19664;SDS011;9980;51.020;7.772;2022-09-09T07:27:12;3.40;;;1.70;;
19664;SDS011;9980;51.020;7.772;2022-09-09T07:29:40;2.07;;;1.70;;
19664;SDS011;9980;51.020;7.772;2022-09-09T07:32:07;1.97;;;1.50;;
19664;SDS011;9980;51.020;7.772;2022-09-09T07:34:36;3.97;;;1.77;;
19664;SDS011;9980;51.020;7.772;2022-09-09T07:37:04;2.70;;;1.53;;
19664;SDS011;9980;51.020;7.772;2022-09-09T07:39:32;4.13;;;1.80;;
19664;SDS011;9980;51.020;7.772;2022-09-09T07:42:00;4.63;;;1.53;;
19664;SDS011;9980;51.020;7.772;2022-09-09T07:44:27;3.87;;;2.10;;
19664;SDS011;9980;51.020;7.772;2022-09-09T07:47:04;3.80;;;1.67;;
19664;SDS011;9980;51.020;7.772;2022-09-09T07:49:36;3.00;;;1.80;;
19664;SDS011;9980;51.020;7.772;2022-09-09T07:52:05;1.83;;;1.40;;
19664;SDS011;9980;51.020;7.772;2022-09-09T07:54:33;3.27;;;1.67;;
19664;SDS011;9980;51.020;7.772;2022-09-09T07:57:03;3.30;;;1.50;;
19664;SDS011;9980;51.020;7.772;2022-09-09T07:59:34;2.87;;;1.50;;
19664;SDS011;9980;51.020;7.772;2022-09-09T08:02:02;4.07;;;1.63;;
19664;SDS011;9980;51.020;7.772;2022-09-09T08:04:31;4.00;;;1.50;;
19664;SDS011;9980;51.020;7.772;2022-09-09T08:06:59;5.43;;;1.73;;
19664;SDS011;9980;51.020;7.772;2022-09-09T08:09:36;7.07;;;2.50;;
19664;SDS011;9980;51.020;7.772;2022-09-09T08:12:16;2.27;;;1.27;;
19664;SDS011;9980;51.020;7.772;2022-09-09T08:14:43;6.87;;;2.13;;
19664;SDS011;9980;51.020;7.772;2022-09-09T08:17:10;7.10;;;2.70;;
19664;SDS011;9980;51.020;7.772;2022-09-09T08:19:37;9.13;;;2.47;;
19664;SDS011;9980;51.020;7.772;2022-09-09T08:22:09;4.33;;;1.63;;
19664;SDS011;9980;51.020;7.772;2022-09-09T08:24:38;6.50;;;1.60;;
19664;SDS011;9980;51.020;7.772;2022-09-09T08:27:06;6.63;;;2.27;;
19664;SDS011;9980;51.020;7.772;2022-09-09T08:29:33;5.27;;;1.73;;
19664;SDS011;9980;51.020;7.772;2022-09-09T08:32:01;4.60;;;1.90;;
19664;SDS011;9980;51.020;7.772;2022-09-09T08:34:28;5.63;;;1.30;;
19664;SDS011;9980;51.020;7.772;2022-09-09T08:36:59;3.37;;;1.10;;
19664;SDS011;9980;51.020;7.772;2022-09-09T08:39:34;4.20;;;1.37;;
19664;SDS011;9980;51.020;7.772;2022-09-09T08:42:08;2.57;;;1.40;;
19664;SDS011;9980;51.020;7.772;2022-09-09T08:50:38;3.33;;;1.30;;
19664;SDS011;9980;51.020;7.772;2022-09-09T08:53:16;12.43;;;1.50;;
19664;SDS011;9980;51.020;7.772;2022-09-09T08:55:54;7.07;;;2.47;;
19664;SDS011;9980;51.020;7.772;2022-09-09T08:58:43;4.63;;;1.67;;
19664;SDS011;9980;51.020;7.772;2022-09-09T09:01:49;18.17;;;3.67;;
19664;SDS011;9980;51.020;7.772;2022-09-09T09:10:56;4.67;;;1.40;;
19664;SDS011;9980;51.020;7.772;2022-09-09T09:13:39;2.63;;;1.17;;
19664;SDS011;9980;51.020;7.772;2022-09-09T09:16:24;1.70;;;1.20;;
19664;SDS011;9980;51.020;7.772;2022-09-09T09:19:04;2.47;;;1.40;;
19664;SDS011;9980;51.020;7.772;2022-09-09T09:21:40;7.20;;;1.60;;
19664;SDS011;9980;51.020;7.772;2022-09-09T09:24:28;5.97;;;1.67;;
19664;SDS011;9980;51.020;7.772;2022-09-09T09:27:40;7.20;;;1.33;;
19664;SDS011;9980;51.020;7.772;2022-09-09T09:30:20;5.37;;;1.93;;
19664;SDS011;9980;51.020;7.772;2022-09-09T09:35:56;3.57;;;1.30;;
19664;SDS011;9980;51.020;7.772;2022-09-09T09:38:25;4.53;;;1.50;;
19664;SDS011;9980;51.020;7.772;2022-09-09T09:41:14;2.13;;;1.47;;
19664;SDS011;9980;51.020;7.772;2022-09-09T09:43:41;3.97;;;1.30;;
19664;SDS011;9980;51.020;7.772;2022-09-09T09:46:19;2.87;;;1.20;;
19664;SDS011;9980;51.020;7.772;2022-09-09T09:48:59;6.63;;;2.17;;
19664;SDS011;9980;51.020;7.772;2022-09-09T09:51:35;6.43;;;1.67;;
19664;SDS011;9980;51.020;7.772;2022-09-09T09:56:40;5.80;;;1.70;;
19664;SDS011;9980;51.020;7.772;2022-09-09T09:59:23;1.67;;;1.20;;
19664;SDS011;9980;51.020;7.772;2022-09-09T10:05:05;2.40;;;1.40;;
19664;SDS011;9980;51.020;7.772;2022-09-09T10:07:47;5.03;;;1.20;;
19664;SDS011;9980;51.020;7.772;2022-09-09T10:22:07;7.37;;;1.40;;
19664;SDS011;9980;51.020;7.772;2022-09-09T10:28:07;3.23;;;1.03;;
19664;SDS011;9980;51.020;7.772;2022-09-09T10:31:12;2.50;;;1.00;;
19664;SDS011;9980;51.020;7.772;2022-09-09T10:37:31;6.30;;;1.47;;
19664;SDS011;9980;51.020;7.772;2022-09-09T10:43:12;7.80;;;1.43;;
19664;SDS011;9980;51.020;7.772;2022-09-09T10:52:18;2.03;;;1.23;;
19664;SDS011;9980;51.020;7.772;2022-09-09T10:57:46;3.33;;;1.03;;
19664;SDS011;9980;51.020;7.772;2022-09-09T11:00:21;2.00;;;0.87;;
19664;SDS011;9980;51.020;7.772;2022-09-09T11:02:56;2.60;;;1.00;;
19664;SDS011;9980;51.020;7.772;2022-09-09T11:08:21;1.83;;;0.73;;
19664;SDS011;9980;51.020;7.772;2022-09-09T11:11:09;4.90;;;1.10;;
19664;SDS011;9980;51.020;7.772;2022-09-09T11:16:34;9.07;;;2.80;;
19664;SDS011;9980;51.020;7.772;2022-09-09T11:22:07;1.53;;;0.80;;
19664;SDS011;9980;51.020;7.772;2022-09-09T11:24:58;1.70;;;0.90;;
19664;SDS011;9980;51.020;7.772;2022-09-09T11:30:22;5.70;;;1.00;;
19664;SDS011;9980;51.020;7.772;2022-09-09T11:33:29;2.73;;;0.90;;
19664;SDS011;9980;51.020;7.772;2022-09-09T11:39:07;3.67;;;0.93;;
19664;SDS011;9980;51.020;7.772;2022-09-09T11:42:06;3.27;;;0.93;;
19664;SDS011;9980;51.020;7.772;2022-09-09T11:44:40;1.77;;;0.83;;
19664;SDS011;9980;51.020;7.772;2022-09-09T11:47:50;4.30;;;1.10;;
19664;SDS011;9980;51.020;7.772;2022-09-09T11:50:09;2.70;;;1.23;;
19664;SDS011;9980;51.020;7.772;2022-09-09T11:53:03;3.70;;;0.93;;
19664;SDS011;9980;51.020;7.772;2022-09-09T11:55:47;2.58;;;0.90;;
19664;SDS011;9980;51.020;7.772;2022-09-09T11:58:25;3.35;;;1.15;;
19664;SDS011;9980;51.020;7.772;2022-09-09T12:00:54;7.70;;;1.10;;
19664;SDS011;9980;51.020;7.772;2022-09-09T12:06:31;2.30;;;1.02;;
19664;SDS011;9980;51.020;7.772;2022-09-09T12:09:08;1.98;;;1.00;;
19664;SDS011;9980;51.020;7.772;2022-09-09T12:11:49;2.20;;;0.98;;
19664;SDS011;9980;51.020;7.772;2022-09-09T12:14:37;2.47;;;1.00;;
19664;SDS011;9980;51.020;7.772;2022-09-09T12:17:22;1.63;;;0.70;;
19664;SDS011;9980;51.020;7.772;2022-09-09T12:20:02;2.75;;;0.90;;
19664;SDS011;9980;51.020;7.772;2022-09-09T12:25:48;1.23;;;0.60;;
19664;SDS011;9980;51.020;7.772;2022-09-09T12:28:39;3.70;;;0.80;;
19664;SDS011;9980;51.020;7.772;2022-09-09T12:31:12;6.30;;;0.90;;
19664;SDS011;9980;51.020;7.772;2022-09-09T12:34:13;4.75;;;0.70;;
19664;SDS011;9980;51.020;7.772;2022-09-09T12:36:53;3.45;;;0.95;;
19664;SDS011;9980;51.020;7.772;2022-09-09T12:39:30;3.10;;;1.00;;
19664;SDS011;9980;51.020;7.772;2022-09-09T12:42:14;4.43;;;0.90;;
19664;SDS011;9980;51.020;7.772;2022-09-09T12:44:56;2.33;;;0.80;;
19664;SDS011;9980;51.020;7.772;2022-09-09T12:47:36;2.55;;;0.80;;
19664;SDS011;9980;51.020;7.772;2022-09-09T12:50:16;1.35;;;0.70;;
19664;SDS011;9980;51.020;7.772;2022-09-09T12:52:52;6.57;;;1.42;;
19664;SDS011;9980;51.020;7.772;2022-09-09T12:55:27;1.38;;;0.68;;
19664;SDS011;9980;51.020;7.772;2022-09-09T12:58:00;2.75;;;0.77;;
19664;SDS011;9980;51.020;7.772;2022-09-09T13:00:32;4.35;;;1.60;;
19664;SDS011;9980;51.020;7.772;2022-09-09T13:03:01;3.85;;;1.30;;
19664;SDS011;9980;51.020;7.772;2022-09-09T13:05:43;1.27;;;0.73;;
19664;SDS011;9980;51.020;7.772;2022-09-09T13:08:11;4.68;;;0.90;;
19664;SDS011;9980;51.020;7.772;2022-09-09T13:10:42;2.20;;;1.00;;
19664;SDS011;9980;51.020;7.772;2022-09-09T13:13:29;16.98;;;1.10;;
19664;SDS011;9980;51.020;7.772;2022-09-09T13:16:22;2.25;;;0.90;;
19664;SDS011;9980;51.020;7.772;2022-09-09T13:19:08;1.13;;;0.80;;
19664;SDS011;9980;51.020;7.772;2022-09-09T13:21:43;7.35;;;0.90;;
19664;SDS011;9980;51.020;7.772;2022-09-09T13:24:33;3.22;;;1.08;;
19664;SDS011;9980;51.020;7.772;2022-09-09T13:27:02;1.73;;;0.98;;
19664;SDS011;9980;51.020;7.772;2022-09-09T13:29:53;1.17;;;0.70;;
19664;SDS011;9980;51.020;7.772;2022-09-09T13:32:23;2.70;;;0.93;;
19664;SDS011;9980;51.020;7.772;2022-09-09T13:37:36;2.45;;;0.90;;
19664;SDS011;9980;51.020;7.772;2022-09-09T13:40:17;4.18;;;1.20;;
19664;SDS011;9980;51.020;7.772;2022-09-09T13:42:50;3.30;;;1.10;;
19664;SDS011;9980;51.020;7.772;2022-09-09T13:45:23;4.43;;;0.85;;
19664;SDS011;9980;51.020;7.772;2022-09-09T13:47:55;1.48;;;0.88;;
19664;SDS011;9980;51.020;7.772;2022-09-09T13:50:26;4.57;;;0.87;;
19664;SDS011;9980;51.020;7.772;2022-09-09T13:52:58;6.07;;;1.20;;
19664;SDS011;9980;51.020;7.772;2022-09-09T13:55:29;4.27;;;1.00;;
19664;SDS011;9980;51.020;7.772;2022-09-09T13:57:57;4.35;;;0.88;;
19664;SDS011;9980;51.020;7.772;2022-09-09T14:00:32;3.25;;;0.90;;
19664;SDS011;9980;51.020;7.772;2022-09-09T14:03:00;4.38;;;0.90;;
19664;SDS011;9980;51.020;7.772;2022-09-09T14:05:29;1.27;;;0.80;;
19664;SDS011;9980;51.020;7.772;2022-09-09T14:07:58;2.65;;;0.70;;
19664;SDS011;9980;51.020;7.772;2022-09-09T14:10:28;1.58;;;0.70;;
19664;SDS011;9980;51.020;7.772;2022-09-09T14:12:55;0.90;;;0.73;;
19664;SDS011;9980;51.020;7.772;2022-09-09T14:15:22;1.10;;;0.75;;
19664;SDS011;9980;51.020;7.772;2022-09-09T14:17:49;1.25;;;0.82;;
19664;SDS011;9980;51.020;7.772;2022-09-09T14:20:18;1.80;;;0.80;;
19664;SDS011;9980;51.020;7.772;2022-09-09T14:22:45;1.80;;;0.97;;
19664;SDS011;9980;51.020;7.772;2022-09-09T14:25:12;3.23;;;0.87;;
19664;SDS011;9980;51.020;7.772;2022-09-09T14:27:40;2.93;;;0.83;;
19664;SDS011;9980;51.020;7.772;2022-09-09T14:30:08;2.10;;;0.80;;
19664;SDS011;9980;51.020;7.772;2022-09-09T14:32:36;1.07;;;0.80;;
19664;SDS011;9980;51.020;7.772;2022-09-09T14:35:08;2.33;;;0.90;;
19664;SDS011;9980;51.020;7.772;2022-09-09T14:37:35;2.60;;;1.00;;
19664;SDS011;9980;51.020;7.772;2022-09-09T14:40:02;1.30;;;0.80;;
19664;SDS011;9980;51.020;7.772;2022-09-09T14:42:30;3.53;;;0.70;;
19664;SDS011;9980;51.020;7.772;2022-09-09T14:44:57;2.63;;;1.00;;
19664;SDS011;9980;51.020;7.772;2022-09-09T14:47:24;4.30;;;1.00;;
19664;SDS011;9980;51.020;7.772;2022-09-09T14:49:52;1.07;;;0.70;;
19664;SDS011;9980;51.020;7.772;2022-09-09T14:52:19;2.37;;;1.00;;
19664;SDS011;9980;51.020;7.772;2022-09-09T14:54:47;2.47;;;0.70;;
19664;SDS011;9980;51.020;7.772;2022-09-09T14:57:14;2.07;;;0.70;;
19664;SDS011;9980;51.020;7.772;2022-09-09T14:59:41;1.37;;;0.70;;
19664;SDS011;9980;51.020;7.772;2022-09-09T15:02:08;0.70;;;0.70;;
19664;SDS011;9980;51.020;7.772;2022-09-09T15:04:35;2.53;;;0.70;;
19664;SDS011;9980;51.020;7.772;2022-09-09T15:07:02;1.13;;;0.83;;
19664;SDS011;9980;51.020;7.772;2022-09-09T15:09:29;1.00;;;0.70;;
19664;SDS011;9980;51.020;7.772;2022-09-09T15:11:56;4.33;;;0.97;;
19664;SDS011;9980;51.020;7.772;2022-09-09T15:14:23;1.83;;;0.97;;
19664;SDS011;9980;51.020;7.772;2022-09-09T15:16:51;2.93;;;0.73;;
19664;SDS011;9980;51.020;7.772;2022-09-09T15:19:18;2.93;;;0.97;;
19664;SDS011;9980;51.020;7.772;2022-09-09T15:21:45;2.43;;;1.13;;
19664;SDS011;9980;51.020;7.772;2022-09-09T15:24:12;4.77;;;0.80;;
19664;SDS011;9980;51.020;7.772;2022-09-09T15:26:39;1.27;;;0.70;;
19664;SDS011;9980;51.020;7.772;2022-09-09T15:29:06;1.20;;;0.73;;
19664;SDS011;9980;51.020;7.772;2022-09-09T15:31:34;2.43;;;0.93;;
19664;SDS011;9980;51.020;7.772;2022-09-09T15:34:03;2.10;;;0.70;;
19664;SDS011;9980;51.020;7.772;2022-09-09T15:36:39;3.17;;;1.00;;
19664;SDS011;9980;51.020;7.772;2022-09-09T15:39:11;1.77;;;0.80;;
19664;SDS011;9980;51.020;7.772;2022-09-09T15:41:46;2.47;;;0.93;;
19664;SDS011;9980;51.020;7.772;2022-09-09T15:44:15;2.87;;;0.77;;
19664;SDS011;9980;51.020;7.772;2022-09-09T15:46:43;2.50;;;0.90;;
19664;SDS011;9980;51.020;7.772;2022-09-09T15:49:23;1.37;;;0.70;;
19664;SDS011;9980;51.020;7.772;2022-09-09T15:51:53;1.10;;;0.70;;
19664;SDS011;9980;51.020;7.772;2022-09-09T15:54:24;1.37;;;0.80;;
19664;SDS011;9980;51.020;7.772;2022-09-09T15:56:53;1.97;;;1.00;;
19664;SDS011;9980;51.020;7.772;2022-09-09T15:59:24;1.67;;;0.73;;
19664;SDS011;9980;51.020;7.772;2022-09-09T16:01:53;1.10;;;0.80;;
19664;SDS011;9980;51.020;7.772;2022-09-09T16:04:22;3.80;;;1.00;;
19664;SDS011;9980;51.020;7.772;2022-09-09T16:06:54;3.53;;;0.80;;
19664;SDS011;9980;51.020;7.772;2022-09-09T16:09:31;1.33;;;0.83;;
19664;SDS011;9980;51.020;7.772;2022-09-09T16:12:02;3.53;;;0.90;;
19664;SDS011;9980;51.020;7.772;2022-09-09T16:14:32;4.07;;;0.97;;
19664;SDS011;9980;51.020;7.772;2022-09-09T16:17:02;1.20;;;0.80;;
19664;SDS011;9980;51.020;7.772;2022-09-09T16:19:30;1.70;;;0.80;;
19664;SDS011;9980;51.020;7.772;2022-09-09T16:22:00;1.90;;;0.97;;
19664;SDS011;9980;51.020;7.772;2022-09-09T16:24:28;3.13;;;0.83;;
19664;SDS011;9980;51.020;7.772;2022-09-09T16:26:55;1.20;;;0.70;;
19664;SDS011;9980;51.020;7.772;2022-09-09T16:29:22;1.53;;;0.70;;
19664;SDS011;9980;51.020;7.772;2022-09-09T16:31:50;0.90;;;0.80;;
19664;SDS011;9980;51.020;7.772;2022-09-09T16:34:17;5.47;;;1.33;;
19664;SDS011;9980;51.020;7.772;2022-09-09T16:36:46;4.77;;;1.13;;
19664;SDS011;9980;51.020;7.772;2022-09-09T16:39:16;2.43;;;1.00;;
19664;SDS011;9980;51.020;7.772;2022-09-09T16:41:47;0.67;;;0.67;;
19664;SDS011;9980;51.020;7.772;2022-09-09T16:44:15;0.60;;;0.60;;
19664;SDS011;9980;51.020;7.772;2022-09-09T16:46:45;3.53;;;0.80;;
19664;SDS011;9980;51.020;7.772;2022-09-09T16:49:26;2.47;;;0.70;;
19664;SDS011;9980;51.020;7.772;2022-09-09T16:51:56;1.80;;;0.83;;
19664;SDS011;9980;51.020;7.772;2022-09-09T16:54:28;1.70;;;0.70;;
19664;SDS011;9980;51.020;7.772;2022-09-09T16:56:59;2.13;;;0.93;;
19664;SDS011;9980;51.020;7.772;2022-09-09T16:59:27;0.87;;;0.60;;
19664;SDS011;9980;51.020;7.772;2022-09-09T17:01:54;0.70;;;0.70;;
19664;SDS011;9980;51.020;7.772;2022-09-09T17:04:22;1.27;;;0.70;;
19664;SDS011;9980;51.020;7.772;2022-09-09T17:06:52;2.23;;;0.90;;
19664;SDS011;9980;51.020;7.772;2022-09-09T17:09:21;1.67;;;0.80;;
19664;SDS011;9980;51.020;7.772;2022-09-09T17:11:49;0.70;;;0.70;;
19664;SDS011;9980;51.020;7.772;2022-09-09T17:14:19;0.83;;;0.60;;
19664;SDS011;9980;51.020;7.772;2022-09-09T17:16:47;2.60;;;0.70;;
19664;SDS011;9980;51.020;7.772;2022-09-09T17:19:14;3.13;;;0.80;;
19664;SDS011;9980;51.020;7.772;2022-09-09T17:21:42;5.77;;;2.33;;
19664;SDS011;9980;51.020;7.772;2022-09-09T17:24:29;2.33;;;0.70;;
19664;SDS011;9980;51.020;7.772;2022-09-09T17:26:56;2.73;;;1.00;;
19664;SDS011;9980;51.020;7.772;2022-09-09T17:29:24;0.90;;;0.90;;
19664;SDS011;9980;51.020;7.772;2022-09-09T17:31:51;1.50;;;0.70;;
19664;SDS011;9980;51.020;7.772;2022-09-09T17:34:20;0.87;;;0.70;;
19664;SDS011;9980;51.020;7.772;2022-09-09T17:36:47;2.77;;;0.80;;
19664;SDS011;9980;51.020;7.772;2022-09-09T17:39:14;4.00;;;0.90;;
19664;SDS011;9980;51.020;7.772;2022-09-09T17:41:41;1.10;;;0.70;;
19664;SDS011;9980;51.020;7.772;2022-09-09T17:44:08;2.23;;;0.67;;
19664;SDS011;9980;51.020;7.772;2022-09-09T17:46:40;5.33;;;1.10;;